EWG997 EDDS-EDDH
Flight info
| Callsign | EWG997 |
|---|---|
| Flight time | 1h 11m |
| Altitude | 39000 |
| Route | OKIBA4H OKIBA N851 RIMKI Z99 LOHRE DCT MASEK DCT ELNAT/N0444F380 P605 NOLGO NOLGO6A |
| Aircraft | A20N/M-SDE2E3FGHIRWXY/LB1 |
Departure
| Time | 2026-04-21 13:57 |
|---|---|
| Airport | Stuttgart Airport (EDDS) |
Arrival
| Time | 2026-04-21 15:09 |
|---|---|
| Airport | Hamburg Helmut Schmidt Airport (EDDH) |
| Time | Latitude | Longitude | Altitude | Speed | Heading |
|---|---|---|---|---|---|
| 2026-04-21 13:27 | 48.68943 | 9.19719 | 1289 ft | 0 kts | 343° |
| 2026-04-21 13:48 | 48.68938 | 9.19722 | 1285 ft | 2 kts | 344° |
| 2026-04-21 13:48 | 48.68919 | 9.19729 | 1288 ft | 3 kts | 351° |
| 2026-04-21 13:48 | 48.68899 | 9.19733 | 1291 ft | 3 kts | 2° |
| 2026-04-21 13:49 | 48.68879 | 9.19728 | 1289 ft | 3 kts | 30° |
| 2026-04-21 13:49 | 48.68868 | 9.19714 | 1287 ft | 1 kts | 74° |
| 2026-04-21 13:49 | 48.68867 | 9.19706 | 1286 ft | 0 kts | 75° |
| 2026-04-21 13:53 | 48.68868 | 9.19712 | 1286 ft | 2 kts | 75° |
| 2026-04-21 13:53 | 48.68874 | 9.19748 | 1289 ft | 5 kts | 75° |
| 2026-04-21 13:54 | 48.68887 | 9.19817 | 1285 ft | 8 kts | 75° |
| 2026-04-21 13:54 | 48.68855 | 9.19882 | 1285 ft | 10 kts | 164° |
| 2026-04-21 13:54 | 48.68789 | 9.19941 | 1285 ft | 13 kts | 156° |
| 2026-04-21 13:54 | 48.68779 | 9.19946 | 1287 ft | 0 kts | 163° |
| 2026-04-21 13:55 | 48.68764 | 9.19952 | 1286 ft | 4 kts | 165° |
| 2026-04-21 13:55 | 48.68726 | 9.19968 | 1286 ft | 7 kts | 164° |
| 2026-04-21 13:55 | 48.68675 | 9.19990 | 1285 ft | 1 kts | 164° |
| 2026-04-21 13:55 | 48.68668 | 9.19993 | 1289 ft | 0 kts | 164° |
| 2026-04-21 13:56 | 48.68666 | 9.19994 | 1288 ft | 1 kts | 164° |
| 2026-04-21 13:56 | 48.68647 | 9.20002 | 1286 ft | 5 kts | 164° |
| 2026-04-21 13:56 | 48.68614 | 9.20039 | 1287 ft | 8 kts | 128° |
| 2026-04-21 13:56 | 48.68597 | 9.20130 | 1285 ft | 11 kts | 85° |
| 2026-04-21 13:57 | 48.68618 | 9.20251 | 1287 ft | 14 kts | 74° |
| 2026-04-21 13:57 | 48.68734 | 9.20795 | 1289 ft | 96 kts | 75° |
| 2026-04-21 13:57 | 48.68975 | 9.22114 | 1287 ft | 161 kts | 73° |
| 2026-04-21 13:57 | 48.69290 | 9.23818 | 1936 ft | 167 kts | 72° |
| 2026-04-21 13:58 | 48.69600 | 9.25516 | 2915 ft | 168 kts | 72° |
| 2026-04-21 13:58 | 48.69897 | 9.27255 | 3826 ft | 178 kts | 74° |
| 2026-04-21 13:58 | 48.70224 | 9.29139 | 4551 ft | 198 kts | 74° |
| 2026-04-21 13:58 | 48.70628 | 9.31330 | 4918 ft | 238 kts | 73° |
| 2026-04-21 13:59 | 48.71118 | 9.33880 | 5003 ft | 255 kts | 73° |
| 2026-04-21 13:59 | 48.71616 | 9.36440 | 5187 ft | 254 kts | 73° |
| 2026-04-21 13:59 | 48.72117 | 9.39020 | 5573 ft | 257 kts | 73° |
| 2026-04-21 13:59 | 48.72619 | 9.41609 | 6602 ft | 255 kts | 73° |
| 2026-04-21 14:00 | 48.73121 | 9.44198 | 7628 ft | 258 kts | 73° |
| 2026-04-21 14:00 | 48.73628 | 9.46826 | 8573 ft | 263 kts | 73° |
| 2026-04-21 14:00 | 48.74242 | 9.49414 | 9649 ft | 263 kts | 60° |
| 2026-04-21 14:00 | 48.75470 | 9.51493 | 10439 ft | 275 kts | 36° |
| 2026-04-21 14:01 | 48.77297 | 9.52690 | 10844 ft | 302 kts | 12° |
| 2026-04-21 14:01 | 48.79474 | 9.52777 | 11226 ft | 325 kts | 358° |
| 2026-04-21 14:01 | 48.81757 | 9.52454 | 11961 ft | 332 kts | 355° |
| 2026-04-21 14:01 | 48.84067 | 9.52075 | 12822 ft | 336 kts | 354° |
| 2026-04-21 14:02 | 48.85617 | 9.51839 | 13341 ft | 341 kts | 355° |
| 2026-04-21 14:02 | 48.88801 | 9.51412 | 14029 ft | 345 kts | 355° |
| 2026-04-21 14:02 | 48.91185 | 9.51128 | 14162 ft | 343 kts | 355° |
| 2026-04-21 14:03 | 48.95774 | 9.50103 | 15346 ft | 349 kts | 344° |
| 2026-04-21 14:03 | 48.97017 | 9.49482 | 15889 ft | 348 kts | 340° |
| 2026-04-21 14:03 | 48.99242 | 9.47972 | 16685 ft | 350 kts | 334° |
| 2026-04-21 14:03 | 49.01431 | 9.46359 | 17239 ft | 361 kts | 334° |
| 2026-04-21 14:04 | 49.03703 | 9.44697 | 18024 ft | 360 kts | 334° |
| 2026-04-21 14:04 | 49.05960 | 9.43047 | 18817 ft | 363 kts | 334° |
| 2026-04-21 14:04 | 49.08248 | 9.41371 | 19440 ft | 366 kts | 334° |
| 2026-04-21 14:04 | 49.10530 | 9.39695 | 20146 ft | 367 kts | 334° |
| 2026-04-21 14:05 | 49.12846 | 9.37991 | 20796 ft | 369 kts | 334° |
| 2026-04-21 14:05 | 49.15172 | 9.36276 | 21392 ft | 374 kts | 334° |
| 2026-04-21 14:05 | 49.17530 | 9.34535 | 22027 ft | 376 kts | 334° |
| 2026-04-21 14:05 | 49.19941 | 9.32923 | 22532 ft | 382 kts | 340° |
| 2026-04-21 14:06 | 49.22515 | 9.31845 | 23216 ft | 383 kts | 348° |
| 2026-04-21 14:06 | 49.25170 | 9.31328 | 23827 ft | 387 kts | 356° |
| 2026-04-21 14:06 | 49.27881 | 9.31134 | 24266 ft | 392 kts | 356° |
| 2026-04-21 14:06 | 49.30622 | 9.30922 | 24752 ft | 395 kts | 356° |
| 2026-04-21 14:07 | 49.33372 | 9.30704 | 25252 ft | 397 kts | 355° |
| 2026-04-21 14:07 | 49.36149 | 9.30664 | 25700 ft | 401 kts | 2° |
| 2026-04-21 14:07 | 49.38943 | 9.31061 | 26198 ft | 404 kts | 4° |
| 2026-04-21 14:07 | 49.41749 | 9.31483 | 26691 ft | 406 kts | 4° |
| 2026-04-21 14:08 | 49.44568 | 9.31896 | 27106 ft | 409 kts | 4° |
| 2026-04-21 14:08 | 49.47387 | 9.32308 | 27524 ft | 412 kts | 4° |
| 2026-04-21 14:08 | 49.50250 | 9.32728 | 27959 ft | 415 kts | 4° |
| 2026-04-21 14:08 | 49.53138 | 9.33154 | 28338 ft | 418 kts | 4° |
| 2026-04-21 14:09 | 49.56043 | 9.33584 | 28722 ft | 421 kts | 4° |
| 2026-04-21 14:09 | 49.58977 | 9.34020 | 29104 ft | 424 kts | 4° |
| 2026-04-21 14:09 | 49.61921 | 9.34457 | 29453 ft | 427 kts | 4° |
| 2026-04-21 14:09 | 49.64887 | 9.34899 | 29828 ft | 429 kts | 4° |
| 2026-04-21 14:10 | 49.67870 | 9.35344 | 30183 ft | 432 kts | 4° |
| 2026-04-21 14:10 | 49.70871 | 9.35792 | 30482 ft | 435 kts | 4° |
| 2026-04-21 14:10 | 49.72871 | 9.36091 | 30688 ft | 436 kts | 4° |
| 2026-04-21 14:10 | 49.75884 | 9.36793 | 30991 ft | 440 kts | 10° |
| 2026-04-21 14:11 | 49.78871 | 9.37933 | 31311 ft | 442 kts | 12° |
| 2026-04-21 14:11 | 49.81860 | 9.39085 | 31699 ft | 442 kts | 12° |
| 2026-04-21 14:11 | 49.84850 | 9.40223 | 32069 ft | 442 kts | 12° |
| 2026-04-21 14:11 | 49.87839 | 9.41365 | 32453 ft | 442 kts | 12° |
| 2026-04-21 14:12 | 49.90821 | 9.42509 | 32837 ft | 441 kts | 12° |
| 2026-04-21 14:12 | 49.93803 | 9.43656 | 33211 ft | 441 kts | 12° |
| 2026-04-21 14:12 | 49.96779 | 9.44804 | 33580 ft | 441 kts | 12° |
| 2026-04-21 14:12 | 49.99758 | 9.45955 | 33945 ft | 441 kts | 12° |
| 2026-04-21 14:13 | 50.02733 | 9.47106 | 34288 ft | 440 kts | 12° |
| 2026-04-21 14:13 | 50.05706 | 9.48238 | 34547 ft | 441 kts | 10° |
| 2026-04-21 14:13 | 50.08688 | 9.48976 | 34803 ft | 439 kts | 4° |
| 2026-04-21 14:13 | 50.11735 | 9.49456 | 35062 ft | 439 kts | 5° |
| 2026-04-21 14:14 | 50.14781 | 9.49967 | 35322 ft | 439 kts | 5° |
| 2026-04-21 14:14 | 50.17824 | 9.50486 | 35584 ft | 439 kts | 5° |
| 2026-04-21 14:14 | 50.20860 | 9.51002 | 35834 ft | 439 kts | 5° |
| 2026-04-21 14:14 | 50.23899 | 9.51516 | 36076 ft | 439 kts | 5° |
| 2026-04-21 14:15 | 50.26938 | 9.52028 | 36342 ft | 439 kts | 5° |
| 2026-04-21 14:15 | 50.29974 | 9.52538 | 36611 ft | 438 kts | 5° |
| 2026-04-21 14:15 | 50.33002 | 9.53048 | 36895 ft | 437 kts | 5° |
| 2026-04-21 14:15 | 50.36024 | 9.53557 | 37110 ft | 437 kts | 5° |
| 2026-04-21 14:16 | 50.39059 | 9.54069 | 37279 ft | 438 kts | 5° |
| 2026-04-21 14:16 | 50.42087 | 9.54581 | 37538 ft | 437 kts | 5° |
| 2026-04-21 14:16 | 50.45116 | 9.55093 | 37688 ft | 438 kts | 5° |
| 2026-04-21 14:16 | 50.48143 | 9.55607 | 37906 ft | 437 kts | 5° |
| 2026-04-21 14:17 | 50.51127 | 9.56112 | 38145 ft | 437 kts | 5° |
| 2026-04-21 14:17 | 50.54157 | 9.56626 | 38308 ft | 437 kts | 5° |
| 2026-04-21 14:17 | 50.57183 | 9.57141 | 38517 ft | 437 kts | 5° |
| 2026-04-21 14:17 | 50.60201 | 9.57655 | 38675 ft | 437 kts | 5° |
| 2026-04-21 14:18 | 50.63227 | 9.58212 | 38845 ft | 437 kts | 8° |
| 2026-04-21 14:18 | 50.66235 | 9.58889 | 38993 ft | 437 kts | 6° |
| 2026-04-21 14:18 | 50.69249 | 9.59486 | 39120 ft | 437 kts | 6° |
| 2026-04-21 14:18 | 50.72265 | 9.60086 | 39224 ft | 437 kts | 6° |
| 2026-04-21 14:19 | 50.75281 | 9.60709 | 39242 ft | 437 kts | 6° |
| 2026-04-21 14:19 | 50.81311 | 9.62009 | 39249 ft | 436 kts | 7° |
| 2026-04-21 14:20 | 50.87287 | 9.63324 | 39246 ft | 436 kts | 7° |
| 2026-04-21 14:20 | 50.93304 | 9.64653 | 39249 ft | 436 kts | 7° |
| 2026-04-21 14:21 | 50.99328 | 9.65986 | 39249 ft | 437 kts | 7° |
| 2026-04-21 14:21 | 51.05364 | 9.67325 | 39258 ft | 438 kts | 7° |
| 2026-04-21 14:22 | 51.11402 | 9.68668 | 39266 ft | 438 kts | 7° |
| 2026-04-21 14:22 | 51.17445 | 9.70015 | 39256 ft | 438 kts | 7° |
| 2026-04-21 14:23 | 51.23441 | 9.71354 | 39258 ft | 438 kts | 7° |
| 2026-04-21 14:23 | 51.29477 | 9.72708 | 39258 ft | 438 kts | 7° |
| 2026-04-21 14:24 | 51.35520 | 9.74067 | 39261 ft | 438 kts | 7° |
| 2026-04-21 14:24 | 51.41555 | 9.75426 | 39267 ft | 437 kts | 7° |
| 2026-04-21 14:25 | 51.47579 | 9.76785 | 39262 ft | 437 kts | 8° |
| 2026-04-21 14:25 | 51.53595 | 9.78149 | 39268 ft | 438 kts | 8° |
| 2026-04-21 14:26 | 51.59618 | 9.79517 | 39271 ft | 437 kts | 8° |
| 2026-04-21 14:26 | 51.65636 | 9.80887 | 39271 ft | 435 kts | 8° |
| 2026-04-21 14:27 | 51.71656 | 9.82262 | 39274 ft | 437 kts | 8° |
| 2026-04-21 14:27 | 51.77673 | 9.83640 | 39276 ft | 438 kts | 8° |
| 2026-04-21 14:28 | 51.83694 | 9.85023 | 39280 ft | 437 kts | 8° |
| 2026-04-21 14:28 | 51.89713 | 9.86406 | 39289 ft | 436 kts | 8° |
| 2026-04-21 14:29 | 51.95753 | 9.87799 | 39282 ft | 438 kts | 8° |
| 2026-04-21 14:29 | 52.01767 | 9.89193 | 39292 ft | 440 kts | 8° |
| 2026-04-21 14:30 | 52.07809 | 9.90595 | 39297 ft | 439 kts | 8° |
| 2026-04-21 14:30 | 52.13851 | 9.91999 | 39295 ft | 438 kts | 9° |
| 2026-04-21 14:31 | 52.17600 | 9.92874 | 39133 ft | 435 kts | 9° |
| 2026-04-21 14:31 | 52.20588 | 9.93572 | 38647 ft | 434 kts | 9° |
| 2026-04-21 14:31 | 52.23584 | 9.94273 | 38004 ft | 433 kts | 9° |
| 2026-04-21 14:31 | 52.26565 | 9.94969 | 37308 ft | 433 kts | 9° |
| 2026-04-21 14:32 | 52.29553 | 9.95669 | 36612 ft | 433 kts | 10° |
| 2026-04-21 14:32 | 52.32531 | 9.96366 | 35943 ft | 432 kts | 10° |
| 2026-04-21 14:32 | 52.35506 | 9.97064 | 35258 ft | 432 kts | 11° |
| 2026-04-21 14:32 | 52.38485 | 9.97761 | 34603 ft | 432 kts | 11° |
| 2026-04-21 14:33 | 52.41453 | 9.98457 | 33880 ft | 432 kts | 12° |
| 2026-04-21 14:33 | 52.44435 | 9.99158 | 33062 ft | 432 kts | 12° |
| 2026-04-21 14:33 | 52.47421 | 9.99861 | 32210 ft | 433 kts | 13° |
| 2026-04-21 14:33 | 52.50370 | 10.00558 | 31391 ft | 435 kts | 13° |
| 2026-04-21 14:34 | 52.53363 | 10.01265 | 30603 ft | 435 kts | 14° |
| 2026-04-21 14:34 | 52.56318 | 10.02170 | 29894 ft | 427 kts | 20° |
| 2026-04-21 14:34 | 52.59162 | 10.03454 | 29222 ft | 420 kts | 21° |
| 2026-04-21 14:34 | 52.61969 | 10.04708 | 28584 ft | 415 kts | 21° |
| 2026-04-21 14:35 | 52.64746 | 10.05938 | 27932 ft | 411 kts | 20° |
| 2026-04-21 14:35 | 52.67491 | 10.07158 | 27294 ft | 406 kts | 21° |
| 2026-04-21 14:35 | 52.70204 | 10.08373 | 26690 ft | 402 kts | 20° |
| 2026-04-21 14:35 | 52.72890 | 10.09578 | 26074 ft | 398 kts | 20° |
| 2026-04-21 14:36 | 52.75553 | 10.10767 | 25553 ft | 394 kts | 19° |
| 2026-04-21 14:36 | 52.78243 | 10.11570 | 25361 ft | 395 kts | 12° |
| 2026-04-21 14:36 | 52.81019 | 10.11842 | 25321 ft | 404 kts | 6° |
| 2026-04-21 14:36 | 52.83837 | 10.11922 | 25310 ft | 405 kts | 7° |
| 2026-04-21 14:37 | 52.86659 | 10.12026 | 25315 ft | 405 kts | 7° |
| 2026-04-21 14:37 | 52.89478 | 10.12133 | 25320 ft | 405 kts | 7° |
| 2026-04-21 14:37 | 52.92295 | 10.12235 | 25319 ft | 405 kts | 7° |
| 2026-04-21 14:37 | 52.95111 | 10.12332 | 25319 ft | 405 kts | 7° |
| 2026-04-21 14:38 | 52.97933 | 10.12428 | 25319 ft | 405 kts | 6° |
| 2026-04-21 14:38 | 53.00751 | 10.12522 | 25320 ft | 405 kts | 6° |
| 2026-04-21 14:38 | 53.03568 | 10.12616 | 25320 ft | 405 kts | 6° |
| 2026-04-21 14:38 | 53.06355 | 10.12709 | 25321 ft | 405 kts | 6° |
| 2026-04-21 14:39 | 53.09175 | 10.12803 | 25321 ft | 405 kts | 7° |
| 2026-04-21 14:39 | 53.11995 | 10.12898 | 25325 ft | 405 kts | 7° |
| 2026-04-21 14:39 | 53.14815 | 10.12992 | 25326 ft | 405 kts | 7° |
| 2026-04-21 14:39 | 53.17633 | 10.13087 | 25328 ft | 405 kts | 7° |
| 2026-04-21 14:40 | 53.20456 | 10.13181 | 25329 ft | 405 kts | 7° |
| 2026-04-21 14:40 | 53.23276 | 10.13276 | 25330 ft | 405 kts | 7° |
| 2026-04-21 14:40 | 53.26097 | 10.13371 | 25332 ft | 405 kts | 7° |
| 2026-04-21 14:40 | 53.28915 | 10.13466 | 25333 ft | 405 kts | 7° |
| 2026-04-21 14:41 | 53.31733 | 10.13561 | 25323 ft | 405 kts | 7° |
| 2026-04-21 14:41 | 53.34553 | 10.13656 | 25336 ft | 406 kts | 7° |
| 2026-04-21 14:41 | 53.37389 | 10.13441 | 25348 ft | 413 kts | 355° |
| 2026-04-21 14:41 | 53.40167 | 10.12025 | 25347 ft | 424 kts | 340° |
| 2026-04-21 14:42 | 53.42692 | 10.09411 | 25318 ft | 429 kts | 325° |
| 2026-04-21 14:42 | 53.44778 | 10.05857 | 25234 ft | 425 kts | 314° |
| 2026-04-21 14:42 | 53.46565 | 10.01976 | 25110 ft | 416 kts | 306° |
| 2026-04-21 14:42 | 53.47764 | 9.97623 | 24979 ft | 409 kts | 287° |
| 2026-04-21 14:43 | 53.48130 | 9.92963 | 24841 ft | 398 kts | 268° |
| 2026-04-21 14:43 | 53.47622 | 9.88520 | 24684 ft | 380 kts | 246° |
| 2026-04-21 14:43 | 53.46354 | 9.84867 | 24507 ft | 355 kts | 225° |
| 2026-04-21 14:43 | 53.44677 | 9.81978 | 24202 ft | 340 kts | 218° |
| 2026-04-21 14:44 | 53.42954 | 9.79273 | 23718 ft | 339 kts | 219° |
| 2026-04-21 14:44 | 53.41293 | 9.76489 | 23312 ft | 337 kts | 222° |
| 2026-04-21 14:44 | 53.39709 | 9.73606 | 22921 ft | 335 kts | 224° |
| 2026-04-21 14:44 | 53.38182 | 9.70670 | 22527 ft | 334 kts | 226° |
| 2026-04-21 14:45 | 53.36687 | 9.67715 | 22142 ft | 331 kts | 226° |
| 2026-04-21 14:45 | 53.35207 | 9.64761 | 21763 ft | 329 kts | 226° |
| 2026-04-21 14:45 | 53.33740 | 9.61833 | 21385 ft | 327 kts | 227° |
| 2026-04-21 14:45 | 53.32281 | 9.58924 | 21009 ft | 325 kts | 227° |
| 2026-04-21 14:46 | 53.30833 | 9.56039 | 20644 ft | 323 kts | 227° |
| 2026-04-21 14:46 | 53.29391 | 9.53177 | 20282 ft | 321 kts | 227° |
| 2026-04-21 14:46 | 53.27951 | 9.50330 | 19915 ft | 319 kts | 227° |
| 2026-04-21 14:46 | 53.26518 | 9.47509 | 19551 ft | 317 kts | 227° |
| 2026-04-21 14:47 | 53.25093 | 9.44714 | 19198 ft | 315 kts | 227° |
| 2026-04-21 14:47 | 53.23673 | 9.41942 | 18844 ft | 313 kts | 227° |
| 2026-04-21 14:47 | 53.22339 | 9.39078 | 18447 ft | 313 kts | 240° |
| 2026-04-21 14:47 | 53.21685 | 9.35691 | 18020 ft | 311 kts | 266° |
| 2026-04-21 14:48 | 53.21901 | 9.32161 | 17589 ft | 304 kts | 293° |
| 2026-04-21 14:48 | 53.22859 | 9.29073 | 17187 ft | 296 kts | 310° |
| 2026-04-21 14:48 | 53.24206 | 9.26539 | 16800 ft | 289 kts | 324° |
| 2026-04-21 14:48 | 53.25773 | 9.24484 | 16413 ft | 284 kts | 328° |
| 2026-04-21 14:49 | 53.27355 | 9.22527 | 16047 ft | 283 kts | 329° |
| 2026-04-21 14:49 | 53.28933 | 9.20577 | 15683 ft | 281 kts | 329° |
| 2026-04-21 14:49 | 53.30502 | 9.18635 | 15335 ft | 280 kts | 329° |
| 2026-04-21 14:49 | 53.32066 | 9.16701 | 14984 ft | 278 kts | 329° |
| 2026-04-21 14:50 | 53.33094 | 9.15430 | 14767 ft | 277 kts | 329° |
| 2026-04-21 14:50 | 53.35140 | 9.12899 | 14299 ft | 275 kts | 329° |
| 2026-04-21 14:50 | 53.36673 | 9.11003 | 13933 ft | 273 kts | 329° |
| 2026-04-21 14:50 | 53.38206 | 9.09110 | 13544 ft | 272 kts | 329° |
| 2026-04-21 14:51 | 53.39732 | 9.07230 | 13058 ft | 275 kts | 329° |
| 2026-04-21 14:51 | 53.41304 | 9.05313 | 12399 ft | 284 kts | 329° |
| 2026-04-21 14:51 | 53.42924 | 9.03356 | 11870 ft | 288 kts | 329° |
| 2026-04-21 14:51 | 53.44547 | 9.01408 | 11495 ft | 286 kts | 329° |
| 2026-04-21 14:52 | 53.46165 | 8.99470 | 11113 ft | 284 kts | 329° |
| 2026-04-21 14:52 | 53.47771 | 8.97548 | 10738 ft | 283 kts | 329° |
| 2026-04-21 14:52 | 53.49369 | 8.95642 | 10370 ft | 281 kts | 329° |
| 2026-04-21 14:52 | 53.50965 | 8.93744 | 9929 ft | 281 kts | 330° |
| 2026-04-21 14:53 | 53.52720 | 8.92526 | 9561 ft | 268 kts | 356° |
| 2026-04-21 14:53 | 53.54524 | 8.92787 | 9152 ft | 258 kts | 24° |
| 2026-04-21 14:53 | 53.55981 | 8.94424 | 8740 ft | 251 kts | 51° |
| 2026-04-21 14:53 | 53.56745 | 8.97005 | 8317 ft | 249 kts | 79° |
| 2026-04-21 14:54 | 53.56634 | 8.99885 | 7917 ft | 251 kts | 108° |
| 2026-04-21 14:54 | 53.55679 | 9.02308 | 7519 ft | 256 kts | 135° |
| 2026-04-21 14:54 | 53.54281 | 9.04180 | 7220 ft | 254 kts | 139° |
| 2026-04-21 14:54 | 53.52914 | 9.05946 | 7120 ft | 242 kts | 139° |
| 2026-04-21 14:55 | 53.51605 | 9.07627 | 6935 ft | 235 kts | 139° |
| 2026-04-21 14:55 | 53.50311 | 9.09286 | 6624 ft | 233 kts | 139° |
| 2026-04-21 14:55 | 53.49022 | 9.10932 | 6319 ft | 232 kts | 139° |
| 2026-04-21 14:55 | 53.47744 | 9.12563 | 6010 ft | 230 kts | 139° |
| 2026-04-21 14:56 | 53.46901 | 9.13642 | 5799 ft | 229 kts | 139° |
| 2026-04-21 14:56 | 53.45639 | 9.15261 | 5523 ft | 227 kts | 139° |
| 2026-04-21 14:56 | 53.44387 | 9.16857 | 5203 ft | 225 kts | 139° |
| 2026-04-21 14:56 | 53.43141 | 9.18441 | 4829 ft | 225 kts | 139° |
| 2026-04-21 14:57 | 53.41894 | 9.20023 | 4430 ft | 225 kts | 139° |
| 2026-04-21 14:57 | 53.40646 | 9.21612 | 4099 ft | 224 kts | 139° |
| 2026-04-21 14:57 | 53.39403 | 9.23195 | 4007 ft | 227 kts | 139° |
| 2026-04-21 14:57 | 53.38145 | 9.24791 | 3995 ft | 225 kts | 139° |
| 2026-04-21 14:58 | 53.36892 | 9.26378 | 3991 ft | 227 kts | 139° |
| 2026-04-21 14:58 | 53.35641 | 9.27993 | 3994 ft | 227 kts | 139° |
| 2026-04-21 14:58 | 53.34540 | 9.29825 | 3991 ft | 221 kts | 116° |
| 2026-04-21 14:58 | 53.34181 | 9.32258 | 3999 ft | 216 kts | 83° |
| 2026-04-21 14:59 | 53.34659 | 9.34611 | 3998 ft | 216 kts | 62° |
| 2026-04-21 14:59 | 53.35339 | 9.36823 | 3999 ft | 214 kts | 63° |
| 2026-04-21 14:59 | 53.36009 | 9.39083 | 3994 ft | 219 kts | 64° |
| 2026-04-21 14:59 | 53.36656 | 9.41370 | 3994 ft | 215 kts | 64° |
| 2026-04-21 15:00 | 53.37279 | 9.43638 | 4015 ft | 215 kts | 65° |
| 2026-04-21 15:00 | 53.37891 | 9.45879 | 3996 ft | 214 kts | 65° |
| 2026-04-21 15:00 | 53.38526 | 9.48200 | 4010 ft | 217 kts | 65° |
| 2026-04-21 15:00 | 53.39151 | 9.50467 | 4011 ft | 213 kts | 63° |
| 2026-04-21 15:01 | 53.39955 | 9.52541 | 3997 ft | 213 kts | 51° |
| 2026-04-21 15:01 | 53.40930 | 9.54452 | 4009 ft | 217 kts | 50° |
| 2026-04-21 15:01 | 53.41891 | 9.56341 | 3982 ft | 214 kts | 50° |
| 2026-04-21 15:01 | 53.42846 | 9.58240 | 3992 ft | 212 kts | 50° |
| 2026-04-21 15:02 | 53.43799 | 9.60145 | 4008 ft | 214 kts | 51° |
| 2026-04-21 15:02 | 53.44760 | 9.62067 | 4010 ft | 216 kts | 50° |
| 2026-04-21 15:02 | 53.45714 | 9.63973 | 3941 ft | 208 kts | 50° |
| 2026-04-21 15:02 | 53.46611 | 9.65763 | 3833 ft | 193 kts | 50° |
| 2026-04-21 15:03 | 53.47449 | 9.67435 | 3637 ft | 183 kts | 50° |
| 2026-04-21 15:03 | 53.48255 | 9.69043 | 3275 ft | 177 kts | 50° |
| 2026-04-21 15:03 | 53.49041 | 9.70622 | 2796 ft | 176 kts | 50° |
| 2026-04-21 15:03 | 53.49815 | 9.72178 | 2540 ft | 175 kts | 51° |
| 2026-04-21 15:04 | 53.50582 | 9.73742 | 2494 ft | 169 kts | 50° |
| 2026-04-21 15:04 | 53.51307 | 9.75208 | 2501 ft | 159 kts | 50° |
| 2026-04-21 15:04 | 53.52013 | 9.76613 | 2497 ft | 157 kts | 50° |
| 2026-04-21 15:04 | 53.52711 | 9.78007 | 2496 ft | 155 kts | 50° |
| 2026-04-21 15:05 | 53.53411 | 9.79409 | 2482 ft | 161 kts | 50° |
| 2026-04-21 15:05 | 53.54844 | 9.82217 | 2026 ft | 152 kts | 50° |
| 2026-04-21 15:05 | 53.55524 | 9.83576 | 1670 ft | 149 kts | 50° |
| 2026-04-21 15:06 | 53.56157 | 9.84878 | 1619 ft | 144 kts | 51° |
| 2026-04-21 15:06 | 53.56804 | 9.86201 | 1557 ft | 146 kts | 51° |
| 2026-04-21 15:06 | 53.57444 | 9.87507 | 1282 ft | 139 kts | 50° |
| 2026-04-21 15:06 | 53.58043 | 9.88717 | 1030 ft | 132 kts | 50° |
| 2026-04-21 15:07 | 53.58629 | 9.89915 | 991 ft | 137 kts | 51° |
| 2026-04-21 15:07 | 53.59230 | 9.91128 | 997 ft | 128 kts | 50° |
| 2026-04-21 15:07 | 53.59783 | 9.92242 | 938 ft | 126 kts | 50° |
| 2026-04-21 15:07 | 53.60361 | 9.93384 | 670 ft | 125 kts | 50° |
| 2026-04-21 15:08 | 53.60898 | 9.94480 | 400 ft | 118 kts | 53° |
| 2026-04-21 15:08 | 53.61430 | 9.95565 | 253 ft | 121 kts | 52° |
| 2026-04-21 15:08 | 53.61976 | 9.96679 | 92 ft | 125 kts | 52° |
| 2026-04-21 15:08 | 53.62494 | 9.97742 | 46 ft | 104 kts | 50° |
| 2026-04-21 15:09 | 53.62877 | 9.98516 | 49 ft | 67 kts | 49° |
| 2026-04-21 15:09 | 53.63117 | 9.98985 | 51 ft | 41 kts | 49° |
| 2026-04-21 15:09 | 53.63259 | 9.99274 | 50 ft | 22 kts | 51° |
| 2026-04-21 15:09 | 53.63300 | 9.99453 | 48 ft | 17 kts | 89° |
| 2026-04-21 15:10 | 53.63277 | 9.99658 | 50 ft | 19 kts | 102° |
| 2026-04-21 15:10 | 53.63238 | 9.99750 | 50 ft | 9 kts | 149° |
| 2026-04-21 15:10 | 53.63175 | 9.99807 | 50 ft | 12 kts | 156° |
| 2026-04-21 15:10 | 53.63089 | 9.99876 | 50 ft | 15 kts | 152° |
| 2026-04-21 15:11 | 53.63019 | 9.99939 | 50 ft | 9 kts | 152° |
| 2026-04-21 15:11 | 53.62954 | 9.99996 | 50 ft | 12 kts | 152° |
| 2026-04-21 15:11 | 53.62918 | 10.00097 | 50 ft | 12 kts | 45° |
| 2026-04-21 15:11 | 53.62978 | 10.00165 | 50 ft | 4 kts | 32° |
| 2026-04-21 15:12 | 53.62998 | 10.00206 | 50 ft | 5 kts | 84° |
| 2026-04-21 15:12 | 53.62974 | 10.00264 | 48 ft | 8 kts | 122° |
| 2026-04-21 15:12 | 53.62967 | 10.00284 | 50 ft | 3 kts | 118° |
| 2026-04-21 15:12 | 53.62965 | 10.00290 | 50 ft | 0 kts | 120° |
| 2026-04-21 15:16 | 53.62966 | 10.00287 | 50 ft | 0 kts | 121° |